createdAt,value
2018-02-24T00:00:24.706Z,20.50
2018-02-24T00:00:56.334Z,20.50
2018-02-24T00:01:27.962Z,20.51
2018-02-24T00:01:59.662Z,20.51
2018-02-24T00:02:31.306Z,20.50
2018-02-24T00:03:02.933Z,20.47
2018-02-24T00:03:34.564Z,20.46
2018-02-24T00:04:06.198Z,20.47
2018-02-24T00:04:37.825Z,20.43
2018-02-24T00:05:09.450Z,20.42
2018-02-24T00:05:41.086Z,20.42
2018-02-24T00:06:12.722Z,20.42
2018-02-24T00:06:44.350Z,20.42
2018-02-24T00:07:16.043Z,20.40
2018-02-24T00:07:47.674Z,20.41
2018-02-24T00:08:19.306Z,20.41
2018-02-24T00:08:50.933Z,20.40
2018-02-24T00:09:22.557Z,20.38
2018-02-24T00:09:54.184Z,20.37
2018-02-24T00:10:25.814Z,20.37
2018-02-24T00:10:57.448Z,20.35
2018-02-24T00:11:29.083Z,20.36
2018-02-24T00:12:00.750Z,20.36
2018-02-24T00:12:32.418Z,20.36
2018-02-24T00:13:04.048Z,20.34
2018-02-24T00:13:35.676Z,20.32
2018-02-24T00:14:07.346Z,20.33
2018-02-24T00:14:39.081Z,20.32
2018-02-24T00:15:10.690Z,20.33
2018-02-24T00:15:42.313Z,20.32
2018-02-24T00:16:13.953Z,20.28
2018-02-24T00:16:45.583Z,20.31
2018-02-24T00:17:17.206Z,20.31
2018-02-24T00:17:48.830Z,20.29
2018-02-24T00:18:20.458Z,20.32
2018-02-24T00:18:52.090Z,20.32
2018-02-24T00:19:23.713Z,20.30
2018-02-24T00:19:55.385Z,20.27
2018-02-24T00:20:27.011Z,20.26
2018-02-24T00:20:58.638Z,20.25
2018-02-24T00:21:30.262Z,20.25
2018-02-24T00:22:01.902Z,20.24
2018-02-24T00:22:33.530Z,20.27
2018-02-24T00:23:05.160Z,20.30
2018-02-24T00:23:36.790Z,20.30
2018-02-24T00:24:08.415Z,20.31
2018-02-24T00:24:40.046Z,20.31
2018-02-24T00:25:11.723Z,20.32
2018-02-24T00:25:43.354Z,20.33
2018-02-24T00:26:14.982Z,20.33
2018-02-24T00:26:46.610Z,20.38
2018-02-24T00:27:18.242Z,20.38
2018-02-24T00:27:49.871Z,20.40
2018-02-24T00:28:21.537Z,20.41
2018-02-24T00:28:53.166Z,20.33
2018-02-24T00:29:24.791Z,20.41
2018-02-24T00:29:56.418Z,20.43
2018-02-24T00:30:28.090Z,20.44
2018-02-24T00:30:59.718Z,20.44
2018-02-24T00:31:31.347Z,20.45
2018-02-24T00:32:02.979Z,20.42
2018-02-24T00:32:34.605Z,20.46
2018-02-24T00:33:06.235Z,20.50
2018-02-24T00:33:37.877Z,20.54
2018-02-24T00:34:09.502Z,20.53
2018-02-24T00:34:41.130Z,20.54
2018-02-24T00:35:12.790Z,20.54
2018-02-24T00:35:44.453Z,20.53
2018-02-24T00:36:16.083Z,20.56
2018-02-24T00:36:47.711Z,20.56
2018-02-24T00:37:19.342Z,20.58
2018-02-24T00:37:50.966Z,20.63
2018-02-24T00:38:22.590Z,20.67
2018-02-24T00:38:54.219Z,20.65
2018-02-24T00:39:25.848Z,20.71
2018-02-24T00:39:57.478Z,20.72
2018-02-24T00:40:29.110Z,20.74
2018-02-24T00:41:00.758Z,20.75
2018-02-24T00:41:32.451Z,20.76
2018-02-24T00:42:04.070Z,20.74
2018-02-24T00:42:35.694Z,20.74
2018-02-24T00:43:07.322Z,20.74
2018-02-24T00:43:38.971Z,20.74
2018-02-24T00:44:10.594Z,20.75
2018-02-24T00:44:42.213Z,20.75
2018-02-24T00:45:13.837Z,20.75
2018-02-24T00:45:45.478Z,20.78
2018-02-24T00:46:17.102Z,20.78
2018-02-24T00:46:48.778Z,20.77
2018-02-24T00:47:20.406Z,20.79
2018-02-24T00:47:52.034Z,20.80
2018-02-24T00:48:23.670Z,20.80
2018-02-24T00:48:55.319Z,20.80
2018-02-24T00:49:26.959Z,20.84
2018-02-24T00:49:58.601Z,20.83
2018-02-24T00:50:30.233Z,20.82
2018-02-24T00:51:01.855Z,20.77
2018-02-24T00:51:33.482Z,20.79
2018-02-24T00:52:05.167Z,20.80
2018-02-24T00:52:36.790Z,20.80
2018-02-24T00:53:08.413Z,20.81
2018-02-24T00:53:40.057Z,20.81
2018-02-24T00:54:11.702Z,20.82
2018-02-24T00:54:43.331Z,20.77
2018-02-24T00:55:14.979Z,20.79
2018-02-24T00:55:46.631Z,20.77
2018-02-24T00:56:18.270Z,20.76
2018-02-24T00:56:49.917Z,20.73
2018-02-24T00:57:21.606Z,20.73
2018-02-24T00:57:53.234Z,20.76
2018-02-24T00:58:24.858Z,20.72
2018-02-24T00:58:56.503Z,20.72
2018-02-24T00:59:28.181Z,20.72
2018-02-24T00:59:59.802Z,20.71
2018-02-24T01:00:31.429Z,20.74
2018-02-24T01:01:03.049Z,20.75
2018-02-24T01:01:34.694Z,20.75
2018-02-24T01:02:06.342Z,20.76
2018-02-24T01:02:37.973Z,20.76
2018-02-24T01:03:09.609Z,20.74
2018-02-24T01:03:41.243Z,20.69
2018-02-24T01:04:12.885Z,20.69
2018-02-24T01:04:44.550Z,20.71
2018-02-24T01:05:16.175Z,20.68
2018-02-24T01:05:47.810Z,20.70
2018-02-24T01:06:19.433Z,20.67
2018-02-24T01:06:51.063Z,20.56
2018-02-24T01:07:22.738Z,20.63
2018-02-24T01:07:54.371Z,20.61
2018-02-24T01:08:25.994Z,20.57
2018-02-24T01:08:57.622Z,20.61
2018-02-24T01:09:29.245Z,20.58
2018-02-24T01:10:00.874Z,20.56
2018-02-24T01:10:32.501Z,20.54
2018-02-24T01:11:04.126Z,20.52
2018-02-24T01:11:35.754Z,20.49
2018-02-24T01:12:07.378Z,20.47
2018-02-24T01:12:39.058Z,20.45
2018-02-24T01:13:10.682Z,20.44
2018-02-24T01:13:42.307Z,20.44
2018-02-24T01:14:13.935Z,20.41
2018-02-24T01:14:45.566Z,20.42
2018-02-24T01:15:17.190Z,20.40
2018-02-24T01:15:48.863Z,20.38
2018-02-24T01:16:20.486Z,20.35
2018-02-24T01:16:52.114Z,20.35
2018-02-24T01:17:23.742Z,20.33
2018-02-24T01:17:55.373Z,20.29
2018-02-24T01:18:27.058Z,20.25
2018-02-24T01:18:58.683Z,20.22
2018-02-24T01:19:30.305Z,20.22
2018-02-24T01:20:01.934Z,20.19
2018-02-24T01:20:33.578Z,20.16
2018-02-24T01:21:05.250Z,20.17
2018-02-24T01:21:36.878Z,20.16
2018-02-24T01:22:08.502Z,20.13
2018-02-24T01:22:40.125Z,20.12
2018-02-24T01:23:11.762Z,20.13
2018-02-24T01:23:43.438Z,20.12
2018-02-24T01:24:15.071Z,20.10
2018-02-24T01:24:46.697Z,20.08
2018-02-24T01:25:18.322Z,20.07
2018-02-24T01:25:49.946Z,20.09
2018-02-24T01:26:21.570Z,20.14
2018-02-24T01:26:53.194Z,20.18
2018-02-24T01:27:24.822Z,20.15
2018-02-24T01:27:56.466Z,20.13
2018-02-24T01:28:28.095Z,20.07
2018-02-24T01:28:59.763Z,20.02
2018-02-24T01:29:31.395Z,19.99
2018-02-24T01:30:03.027Z,20.00
2018-02-24T01:30:34.661Z,19.98
2018-02-24T01:31:06.294Z,19.96
2018-02-24T01:31:37.918Z,19.95
2018-02-24T01:32:09.551Z,19.94
2018-02-24T01:32:41.187Z,19.93
2018-02-24T01:33:12.842Z,19.92
2018-02-24T01:33:44.514Z,19.91
2018-02-24T01:34:16.137Z,19.91
2018-02-24T01:34:47.778Z,19.90
2018-02-24T01:35:19.413Z,19.90
2018-02-24T01:35:51.038Z,19.89
2018-02-24T01:36:22.666Z,19.89
2018-02-24T01:36:54.290Z,19.88
2018-02-24T01:37:25.918Z,19.88
2018-02-24T01:37:57.566Z,19.88
2018-02-24T01:38:29.191Z,19.88
2018-02-24T01:39:00.874Z,19.86
2018-02-24T01:39:32.502Z,19.86
2018-02-24T01:40:04.130Z,19.87
2018-02-24T01:40:35.762Z,19.86
2018-02-24T01:41:07.386Z,19.85
2018-02-24T01:41:39.014Z,19.84
2018-02-24T01:42:10.637Z,19.83
2018-02-24T01:42:42.267Z,19.87
2018-02-24T01:43:13.890Z,19.88
2018-02-24T01:43:45.518Z,19.86
2018-02-24T01:44:17.339Z,19.86
2018-02-24T01:44:48.971Z,19.89
2018-02-24T01:45:20.593Z,19.92
2018-02-24T01:45:52.217Z,19.92
2018-02-24T01:46:23.846Z,19.96
2018-02-24T01:46:55.478Z,19.97
2018-02-24T01:47:27.106Z,20.01
2018-02-24T01:47:58.734Z,20.02
2018-02-24T01:48:30.358Z,20.04
2018-02-24T01:49:01.986Z,20.07
2018-02-24T01:49:33.658Z,20.14
2018-02-24T01:50:05.286Z,20.15
2018-02-24T01:50:36.963Z,20.15
2018-02-24T01:51:08.581Z,20.19
2018-02-24T01:51:40.201Z,20.19
2018-02-24T01:52:11.822Z,20.18
2018-02-24T01:52:43.449Z,20.16
2018-02-24T01:53:15.078Z,20.14
2018-02-24T01:53:46.707Z,20.14
2018-02-24T01:54:18.343Z,20.14
2018-02-24T01:54:49.975Z,20.14
2018-02-24T01:55:21.606Z,20.18
2018-02-24T01:55:53.265Z,20.20
2018-02-24T01:56:24.887Z,20.19
2018-02-24T01:56:56.513Z,20.21
2018-02-24T01:57:28.138Z,20.21
2018-02-24T01:57:59.761Z,20.22
2018-02-24T01:58:31.382Z,20.23
2018-02-24T01:59:03.010Z,20.22
2018-02-24T01:59:34.638Z,20.25
2018-02-24T02:00:06.263Z,20.30
2018-02-24T02:00:37.942Z,20.30
2018-02-24T02:01:09.566Z,20.32
2018-02-24T02:01:41.195Z,20.31
2018-02-24T02:02:12.822Z,20.32
2018-02-24T02:02:44.450Z,20.33
2018-02-24T02:03:16.073Z,20.34
2018-02-24T02:03:47.694Z,20.37
2018-02-24T02:04:19.318Z,20.37
2018-02-24T02:04:50.938Z,20.40
2018-02-24T02:05:22.558Z,20.42
2018-02-24T02:05:54.246Z,20.46
2018-02-24T02:06:25.870Z,20.49
2018-02-24T02:06:57.493Z,20.54
2018-02-24T02:07:29.118Z,20.56
2018-02-24T02:08:00.746Z,20.58
2018-02-24T02:08:32.374Z,20.57
2018-02-24T02:09:03.998Z,20.63
2018-02-24T02:09:35.622Z,20.66
2018-02-24T02:10:07.245Z,20.69
2018-02-24T02:10:38.865Z,20.70
2018-02-24T02:11:10.549Z,20.69
2018-02-24T02:11:42.178Z,20.72
2018-02-24T02:12:13.806Z,20.72
2018-02-24T02:12:45.429Z,20.75
2018-02-24T02:13:17.050Z,20.77
2018-02-24T02:13:48.674Z,20.76
2018-02-24T02:14:20.298Z,20.77
2018-02-24T02:14:51.926Z,20.74
2018-02-24T02:15:23.549Z,20.76
2018-02-24T02:15:55.174Z,20.74
2018-02-24T02:16:26.849Z,20.76
2018-02-24T02:16:58.474Z,20.76
2018-02-24T02:17:30.102Z,20.77
2018-02-24T02:18:01.726Z,20.77
2018-02-24T02:18:33.354Z,20.77
2018-02-24T02:19:04.978Z,20.76
2018-02-24T02:19:36.618Z,20.53
2018-02-24T02:20:08.241Z,20.71
2018-02-24T02:20:39.866Z,20.74
2018-02-24T02:21:11.490Z,20.75
2018-02-24T02:21:43.154Z,20.74
2018-02-24T02:22:14.783Z,20.76
2018-02-24T02:22:46.415Z,20.75
2018-02-24T02:23:18.038Z,20.74
2018-02-24T02:23:49.713Z,20.75
2018-02-24T02:24:21.342Z,20.75
2018-02-24T02:24:52.965Z,20.70
2018-02-24T02:25:24.622Z,20.67
2018-02-24T02:25:56.251Z,20.64
2018-02-24T02:26:27.883Z,20.65
2018-02-24T02:26:59.511Z,20.66
2018-02-24T02:27:31.138Z,20.71
2018-02-24T02:28:02.762Z,20.71
2018-02-24T02:28:34.390Z,20.72
2018-02-24T02:29:06.067Z,20.72
2018-02-24T02:29:37.699Z,20.68
2018-02-24T02:30:09.327Z,20.62
2018-02-24T02:30:40.959Z,20.60
2018-02-24T02:31:12.586Z,20.61
2018-02-24T02:31:44.252Z,20.58
2018-02-24T02:32:15.922Z,20.58
2018-02-24T02:32:47.551Z,20.53
2018-02-24T02:33:19.182Z,20.51
2018-02-24T02:33:50.811Z,20.56
2018-02-24T02:34:22.440Z,20.54
2018-02-24T02:34:54.070Z,20.51
2018-02-24T02:35:25.699Z,20.46
2018-02-24T02:35:57.326Z,20.44
2018-02-24T02:36:28.951Z,20.47
2018-02-24T02:37:00.578Z,20.44
2018-02-24T02:37:32.234Z,20.41
2018-02-24T02:38:03.862Z,20.37
2018-02-24T02:38:35.486Z,20.36
2018-02-24T02:39:07.109Z,20.35
2018-02-24T02:39:38.739Z,20.34
2018-02-24T02:40:10.411Z,20.31
2018-02-24T02:40:42.074Z,20.26
2018-02-24T02:41:13.698Z,20.24
2018-02-24T02:41:45.321Z,20.25
2018-02-24T02:42:16.943Z,20.25
2018-02-24T02:42:48.571Z,20.22
2018-02-24T02:43:20.198Z,20.19
2018-02-24T02:43:51.839Z,20.20
2018-02-24T02:44:23.466Z,20.16
2018-02-24T02:44:55.095Z,20.13
2018-02-24T02:45:26.774Z,20.11
2018-02-24T02:45:58.400Z,20.08
2018-02-24T02:46:30.026Z,20.06
2018-02-24T02:47:01.655Z,20.05
2018-02-24T02:47:33.286Z,20.04
2018-02-24T02:48:04.958Z,20.03
2018-02-24T02:48:36.583Z,20.03
2018-02-24T02:49:08.210Z,20.01
2018-02-24T02:49:39.830Z,19.99
2018-02-24T02:50:11.461Z,19.97
2018-02-24T02:50:43.088Z,19.95
2018-02-24T02:51:14.714Z,19.93
2018-02-24T02:51:46.339Z,19.91
2018-02-24T02:52:17.968Z,19.91
2018-02-24T02:52:49.598Z,19.90
2018-02-24T02:53:21.279Z,19.89
2018-02-24T02:53:52.915Z,19.88
2018-02-24T02:54:24.567Z,19.86
2018-02-24T02:54:56.194Z,19.85
2018-02-24T02:55:27.833Z,19.84
2018-02-24T02:55:59.486Z,19.82
2018-02-24T02:56:31.152Z,19.81
2018-02-24T02:57:02.787Z,19.79
2018-02-24T02:57:34.409Z,19.80
2018-02-24T02:58:06.039Z,19.76
2018-02-24T02:58:37.717Z,19.78
2018-02-24T02:59:09.347Z,19.78
2018-02-24T02:59:40.970Z,19.77
2018-02-24T03:00:12.595Z,19.68
2018-02-24T03:00:44.238Z,19.76
2018-02-24T03:01:15.867Z,19.75
2018-02-24T03:01:47.499Z,19.76
2018-02-24T03:02:19.126Z,19.76
2018-02-24T03:02:50.759Z,19.74
2018-02-24T03:03:22.381Z,19.73
2018-02-24T03:03:54.015Z,19.71
2018-02-24T03:04:25.647Z,19.72
2018-02-24T03:04:57.278Z,19.71
2018-02-24T03:05:28.902Z,19.71
2018-02-24T03:06:00.567Z,19.72
2018-02-24T03:06:32.223Z,19.70
2018-02-24T03:07:03.859Z,19.70
2018-02-24T03:07:35.494Z,19.71
2018-02-24T03:08:07.119Z,19.74
2018-02-24T03:08:38.742Z,19.75
2018-02-24T03:09:10.370Z,19.77
2018-02-24T03:09:41.999Z,19.75
2018-02-24T03:10:13.630Z,19.79
2018-02-24T03:10:45.254Z,19.81
2018-02-24T03:11:16.882Z,19.85
2018-02-24T03:11:48.549Z,19.86
2018-02-24T03:12:20.169Z,19.91
2018-02-24T03:12:51.799Z,19.96
2018-02-24T03:13:23.422Z,19.96
2018-02-24T03:13:55.051Z,20.05
2018-02-24T03:14:26.678Z,20.08
2018-02-24T03:14:58.306Z,20.07
2018-02-24T03:15:29.930Z,20.07
2018-02-24T03:16:01.610Z,20.09
2018-02-24T03:16:33.238Z,20.08
2018-02-24T03:17:04.865Z,20.08
2018-02-24T03:17:36.494Z,20.10
2018-02-24T03:18:08.118Z,20.13
2018-02-24T03:18:39.746Z,20.11
2018-02-24T03:19:11.371Z,20.15
2018-02-24T03:19:42.998Z,20.18
2018-02-24T03:20:14.622Z,20.20
2018-02-24T03:20:46.246Z,20.20
2018-02-24T03:21:17.894Z,20.20
2018-02-24T03:21:49.517Z,20.23
2018-02-24T03:22:21.137Z,20.24
2018-02-24T03:22:52.766Z,20.23
2018-02-24T03:23:24.390Z,20.25
2018-02-24T03:23:56.014Z,20.27
2018-02-24T03:24:27.642Z,20.29
2018-02-24T03:24:59.274Z,20.34
2018-02-24T03:25:30.901Z,20.38
2018-02-24T03:26:02.594Z,20.42
2018-02-24T03:26:34.222Z,20.45
2018-02-24T03:27:05.845Z,20.53
2018-02-24T03:27:37.469Z,20.53
2018-02-24T03:28:09.098Z,20.56
2018-02-24T03:28:40.725Z,20.60
2018-02-24T03:29:12.350Z,20.68
2018-02-24T03:29:43.973Z,20.70
2018-02-24T03:30:15.602Z,20.73
2018-02-24T03:30:47.230Z,20.77
2018-02-24T03:31:18.915Z,20.80
2018-02-24T03:31:50.587Z,20.80
2018-02-24T03:32:22.235Z,20.82
2018-02-24T03:32:53.858Z,20.86
2018-02-24T03:33:25.482Z,20.89
2018-02-24T03:33:58.135Z,20.96
2018-02-24T03:34:29.766Z,20.95
2018-02-24T03:35:01.394Z,20.92
2018-02-24T03:35:33.063Z,20.99
2018-02-24T03:36:04.695Z,20.96
2018-02-24T03:36:36.357Z,20.98
2018-02-24T03:37:07.993Z,20.98
2018-02-24T03:37:39.618Z,20.95
2018-02-24T03:38:11.246Z,20.99
2018-02-24T03:38:42.879Z,21.00
2018-02-24T03:39:14.503Z,20.96
2018-02-24T03:39:46.199Z,20.96
2018-02-24T03:40:17.866Z,20.98
2018-02-24T03:40:49.490Z,20.97
2018-02-24T03:41:21.134Z,20.94
2018-02-24T03:41:52.774Z,20.96
2018-02-24T03:42:24.422Z,20.98
2018-02-24T03:42:56.067Z,20.98
2018-02-24T03:43:27.691Z,20.99
2018-02-24T03:43:59.372Z,20.96
2018-02-24T03:44:31.018Z,20.95
2018-02-24T03:45:02.663Z,20.93
2018-02-24T03:45:34.305Z,20.87
2018-02-24T03:46:05.937Z,20.85
2018-02-24T03:46:37.579Z,20.84
2018-02-24T03:47:09.211Z,20.81
2018-02-24T03:47:40.857Z,20.78
2018-02-24T03:48:12.481Z,20.78
2018-02-24T03:48:44.101Z,20.74
2018-02-24T03:49:15.765Z,20.72
2018-02-24T03:49:47.411Z,20.73
2018-02-24T03:50:19.060Z,20.72
2018-02-24T03:50:50.698Z,20.72
2018-02-24T03:51:22.381Z,20.77
2018-02-24T03:51:54.078Z,20.74
2018-02-24T03:52:25.702Z,20.72
2018-02-24T03:52:57.350Z,20.72
2018-02-24T03:53:28.978Z,20.69
2018-02-24T03:54:00.602Z,20.68
2018-02-24T03:54:32.226Z,20.68
2018-02-24T03:55:03.849Z,20.67
2018-02-24T03:55:35.495Z,20.65
2018-02-24T03:56:07.175Z,20.63
2018-02-24T03:56:38.801Z,20.62
2018-02-24T03:57:10.425Z,20.61
2018-02-24T03:57:42.067Z,20.56
2018-02-24T03:58:13.690Z,20.52
2018-02-24T03:58:45.313Z,20.47
2018-02-24T03:59:16.942Z,20.45
2018-02-24T03:59:48.566Z,20.43
2018-02-24T04:00:20.198Z,20.42
2018-02-24T04:00:51.826Z,20.37
2018-02-24T04:01:23.514Z,20.36
2018-02-24T04:01:55.141Z,20.17
2018-02-24T04:02:26.766Z,20.34
2018-02-24T04:02:58.398Z,20.30
2018-02-24T04:03:30.027Z,20.29
2018-02-24T04:04:01.655Z,20.25
2018-02-24T04:04:33.301Z,20.25
2018-02-24T04:05:04.942Z,20.23
2018-02-24T04:05:36.586Z,20.21
2018-02-24T04:06:08.229Z,20.18
2018-02-24T04:06:39.894Z,20.14
2018-02-24T04:07:11.531Z,20.14
2018-02-24T04:07:43.170Z,20.11
2018-02-24T04:08:14.794Z,20.07
2018-02-24T04:08:46.462Z,20.06
2018-02-24T04:09:18.098Z,20.06
2018-02-24T04:09:49.726Z,20.04
2018-02-24T04:10:21.350Z,20.01
2018-02-24T04:10:52.974Z,20.00
2018-02-24T04:11:24.618Z,19.99
2018-02-24T04:11:56.293Z,19.97
2018-02-24T04:12:27.922Z,19.93
2018-02-24T04:12:59.550Z,19.92
2018-02-24T04:13:31.178Z,19.92
2018-02-24T04:14:02.927Z,19.91
2018-02-24T04:14:34.559Z,19.88
2018-02-24T04:15:06.230Z,19.88
2018-02-24T04:15:37.854Z,19.86
2018-02-24T04:16:09.481Z,19.84
2018-02-24T04:16:41.106Z,19.82
2018-02-24T04:17:12.725Z,19.83
2018-02-24T04:17:44.350Z,19.83
2018-02-24T04:18:15.981Z,19.82
2018-02-24T04:18:47.613Z,19.78
2018-02-24T04:19:19.244Z,19.78
2018-02-24T04:19:50.869Z,19.77
2018-02-24T04:20:22.499Z,19.77
2018-02-24T04:20:54.130Z,19.76
2018-02-24T04:21:25.754Z,19.75
2018-02-24T04:21:57.379Z,19.72
2018-02-24T04:22:29.007Z,19.75
2018-02-24T04:23:00.677Z,19.74
2018-02-24T04:23:32.302Z,19.71
2018-02-24T04:24:03.930Z,19.71
2018-02-24T04:24:35.562Z,19.70
2018-02-24T04:25:07.186Z,19.68
2018-02-24T04:25:38.862Z,19.67
2018-02-24T04:26:10.485Z,19.66
2018-02-24T04:26:42.117Z,19.65
2018-02-24T04:27:13.742Z,19.68
2018-02-24T04:27:45.366Z,19.66
2018-02-24T04:28:17.002Z,19.65
2018-02-24T04:28:48.630Z,19.63
2018-02-24T04:29:20.258Z,19.62
2018-02-24T04:29:51.887Z,19.60
2018-02-24T04:30:23.515Z,19.58
2018-02-24T04:30:55.182Z,19.62
2018-02-24T04:31:26.810Z,19.62
2018-02-24T04:31:58.439Z,19.64
2018-02-24T04:32:30.062Z,19.62
2018-02-24T04:33:01.690Z,19.62
2018-02-24T04:33:33.313Z,19.65
2018-02-24T04:34:04.936Z,19.69
2018-02-24T04:34:36.566Z,19.70
2018-02-24T04:35:08.191Z,19.74
2018-02-24T04:35:39.862Z,19.78
2018-02-24T04:36:11.486Z,19.78
2018-02-24T04:36:43.123Z,19.82
2018-02-24T04:37:14.746Z,19.88
2018-02-24T04:37:46.370Z,19.86
2018-02-24T04:38:17.994Z,19.89
2018-02-24T04:38:49.622Z,19.90
2018-02-24T04:39:21.294Z,19.89
2018-02-24T04:39:52.922Z,19.93
2018-02-24T04:40:24.551Z,19.96
2018-02-24T04:40:56.186Z,19.98
2018-02-24T04:41:27.959Z,19.99
2018-02-24T04:41:59.630Z,20.01
2018-02-24T04:42:31.259Z,20.03
2018-02-24T04:43:02.883Z,20.04
2018-02-24T04:43:34.506Z,20.10
2018-02-24T04:44:06.134Z,20.12
2018-02-24T04:44:37.810Z,20.13
2018-02-24T04:45:09.438Z,20.17
2018-02-24T04:45:41.070Z,20.20
2018-02-24T04:46:12.694Z,20.24
2018-02-24T04:46:44.321Z,20.26
2018-02-24T04:47:15.947Z,20.25
2018-02-24T04:47:47.570Z,20.28
2018-02-24T04:48:19.198Z,20.31
2018-02-24T04:48:50.827Z,20.30
2018-02-24T04:49:22.451Z,20.36
2018-02-24T04:49:54.078Z,20.37
2018-02-24T04:50:25.707Z,20.40
2018-02-24T04:50:57.338Z,20.44
2018-02-24T04:51:28.961Z,20.44
2018-02-24T04:52:00.594Z,20.47
2018-02-24T04:52:32.262Z,20.46
2018-02-24T04:53:03.898Z,20.54
2018-02-24T04:53:35.526Z,20.59
2018-02-24T04:54:07.149Z,20.56
2018-02-24T04:54:38.770Z,20.60
2018-02-24T04:55:10.394Z,20.58
2018-02-24T04:55:42.074Z,20.61
2018-02-24T04:56:13.703Z,20.64
2018-02-24T04:56:45.325Z,20.64
2018-02-24T04:57:16.950Z,20.67
2018-02-24T04:57:48.577Z,20.70
2018-02-24T04:58:20.202Z,20.78
2018-02-24T04:58:51.842Z,20.80
2018-02-24T04:59:23.471Z,20.79
2018-02-24T04:59:55.093Z,20.77
2018-02-24T05:00:26.722Z,20.82
2018-02-24T05:00:58.391Z,20.84
2018-02-24T05:01:30.020Z,20.84
2018-02-24T05:02:01.651Z,20.82
2018-02-24T05:02:33.273Z,20.88
2018-02-24T05:03:04.894Z,20.86
2018-02-24T05:03:36.565Z,20.87
2018-02-24T05:04:08.190Z,20.86
2018-02-24T05:04:39.819Z,20.87
2018-02-24T05:05:11.442Z,20.81
2018-02-24T05:05:43.070Z,20.87
2018-02-24T05:06:14.693Z,20.88
2018-02-24T05:06:46.318Z,20.88
2018-02-24T05:07:17.943Z,20.89
2018-02-24T05:07:49.573Z,20.87
2018-02-24T05:08:21.201Z,20.88
2018-02-24T05:08:52.873Z,20.81
2018-02-24T05:09:24.506Z,20.81
2018-02-24T05:09:56.129Z,20.80
2018-02-24T05:10:27.757Z,20.76
2018-02-24T05:10:59.377Z,20.77
2018-02-24T05:11:31.033Z,20.72
2018-02-24T05:12:02.663Z,20.71
2018-02-24T05:12:34.290Z,20.69
2018-02-24T05:13:05.954Z,20.67
2018-02-24T05:13:37.577Z,20.63
2018-02-24T05:14:09.250Z,20.66
2018-02-24T05:14:40.874Z,20.70
2018-02-24T05:15:12.501Z,20.68
2018-02-24T05:15:44.146Z,20.66
2018-02-24T05:16:15.778Z,20.63
2018-02-24T05:16:47.406Z,20.61
2018-02-24T05:17:19.034Z,20.57
2018-02-24T05:17:50.666Z,20.60
2018-02-24T05:18:22.296Z,20.62
2018-02-24T05:18:53.918Z,20.61
2018-02-24T05:19:25.554Z,20.60
2018-02-24T05:19:57.178Z,20.56
2018-02-24T05:20:28.806Z,20.58
2018-02-24T05:21:00.434Z,20.55
2018-02-24T05:21:32.059Z,20.59
2018-02-24T05:22:03.682Z,20.57
2018-02-24T05:22:35.310Z,20.55
2018-02-24T05:23:06.937Z,20.53
2018-02-24T05:23:38.566Z,20.48
2018-02-24T05:24:10.194Z,20.46
2018-02-24T05:24:41.891Z,20.38
2018-02-24T05:25:13.522Z,20.35
2018-02-24T05:25:45.151Z,20.35
2018-02-24T05:26:16.777Z,20.35
2018-02-24T05:26:48.409Z,20.33
2018-02-24T05:27:20.033Z,20.30
2018-02-24T05:27:51.697Z,20.31
2018-02-24T05:28:23.318Z,20.31
2018-02-24T05:28:54.942Z,20.29
2018-02-24T05:29:26.575Z,20.28
2018-02-24T05:29:58.214Z,20.24
2018-02-24T05:30:29.837Z,20.21
2018-02-24T05:31:01.461Z,20.18
2018-02-24T05:31:33.082Z,20.15
2018-02-24T05:32:04.706Z,20.13
2018-02-24T05:32:36.383Z,20.09
2018-02-24T05:33:08.006Z,20.08
2018-02-24T05:33:39.634Z,20.07
2018-02-24T05:34:11.257Z,20.06
2018-02-24T05:34:42.881Z,20.04
2018-02-24T05:35:14.501Z,20.04
2018-02-24T05:35:46.131Z,20.02
2018-02-24T05:36:17.810Z,19.91
2018-02-24T05:36:49.434Z,19.99
2018-02-24T05:37:21.057Z,19.98
2018-02-24T05:37:52.682Z,19.95
2018-02-24T05:38:24.310Z,19.92
2018-02-24T05:38:55.946Z,19.90
2018-02-24T05:39:27.574Z,19.87
2018-02-24T05:39:59.198Z,19.88
2018-02-24T05:40:30.829Z,19.87
2018-02-24T05:41:02.453Z,19.87
2018-02-24T05:41:34.073Z,19.86
2018-02-24T05:42:05.703Z,19.83
2018-02-24T05:42:37.369Z,19.80
2018-02-24T05:43:09.002Z,19.79
2018-02-24T05:43:40.625Z,19.77
2018-02-24T05:44:12.258Z,19.76
2018-02-24T05:44:43.882Z,19.76
2018-02-24T05:45:15.505Z,19.74
2018-02-24T05:45:47.174Z,19.75
2018-02-24T05:46:18.797Z,19.72
2018-02-24T05:46:50.418Z,19.71
2018-02-24T05:47:22.042Z,19.71
2018-02-24T05:47:53.669Z,19.69
2018-02-24T05:48:25.298Z,19.70
2018-02-24T05:48:56.921Z,19.68
2018-02-24T05:49:28.546Z,19.68
2018-02-24T05:50:00.170Z,19.68
2018-02-24T05:50:31.794Z,19.68
2018-02-24T05:51:03.470Z,19.68
2018-02-24T05:51:35.130Z,19.65
2018-02-24T05:52:06.762Z,19.64
2018-02-24T05:52:38.390Z,19.64
2018-02-24T05:53:10.025Z,19.65
2018-02-24T05:53:41.646Z,19.63
2018-02-24T05:54:13.273Z,19.61
2018-02-24T05:54:44.902Z,19.61
2018-02-24T05:55:16.590Z,19.59
2018-02-24T05:55:48.266Z,19.61
2018-02-24T05:56:19.894Z,19.60
2018-02-24T05:56:51.531Z,19.60
2018-02-24T05:57:23.172Z,19.61
2018-02-24T05:57:54.823Z,19.63
2018-02-24T05:58:26.454Z,19.65
2018-02-24T05:58:58.082Z,19.70
2018-02-24T05:59:29.706Z,19.73
2018-02-24T06:00:01.334Z,19.77
2018-02-24T06:00:32.982Z,19.82
2018-02-24T06:01:05.278Z,19.84
2018-02-24T06:01:36.902Z,19.86
2018-02-24T06:02:08.537Z,19.87
2018-02-24T06:02:40.167Z,19.88
2018-02-24T06:03:11.792Z,19.91
2018-02-24T06:03:43.423Z,19.91
2018-02-24T06:04:15.055Z,19.94
2018-02-24T06:04:46.682Z,19.96
2018-02-24T06:05:18.311Z,19.97
2018-02-24T06:05:49.933Z,19.99
2018-02-24T06:06:21.614Z,20.02
2018-02-24T06:06:53.242Z,20.06
2018-02-24T06:07:24.866Z,20.07
2018-02-24T06:07:56.491Z,20.08
2018-02-24T06:08:28.118Z,20.12
2018-02-24T06:08:59.741Z,20.16
2018-02-24T06:09:31.362Z,20.19
2018-02-24T06:10:02.991Z,20.23
2018-02-24T06:10:34.622Z,20.24
2018-02-24T06:11:06.246Z,20.26
2018-02-24T06:11:37.922Z,20.31
2018-02-24T06:12:09.546Z,20.29
2018-02-24T06:12:41.174Z,20.30
2018-02-24T06:13:12.803Z,20.36
2018-02-24T06:13:44.434Z,20.35
2018-02-24T06:14:16.106Z,20.39
2018-02-24T06:14:47.735Z,20.40
2018-02-24T06:15:19.357Z,20.42
2018-02-24T06:15:51.003Z,20.41
2018-02-24T06:16:22.629Z,20.41
2018-02-24T06:16:54.254Z,20.44
2018-02-24T06:17:25.878Z,20.49
2018-02-24T06:17:57.563Z,20.53
2018-02-24T06:18:29.190Z,20.54
2018-02-24T06:19:00.813Z,20.58
2018-02-24T06:19:32.438Z,20.61
2018-02-24T06:20:04.069Z,20.62
2018-02-24T06:20:35.694Z,20.68
2018-02-24T06:21:07.322Z,20.68
2018-02-24T06:21:38.946Z,20.72
2018-02-24T06:22:10.569Z,20.74
2018-02-24T06:22:42.211Z,20.78
2018-02-24T06:23:13.878Z,20.78
2018-02-24T06:23:45.506Z,20.78
2018-02-24T06:24:17.129Z,20.78
2018-02-24T06:24:48.754Z,20.81
2018-02-24T06:25:20.383Z,20.76
2018-02-24T06:25:52.009Z,20.77
2018-02-24T06:26:23.639Z,20.77
2018-02-24T06:26:55.327Z,20.76
2018-02-24T06:27:26.974Z,20.75
2018-02-24T06:27:58.603Z,20.74
2018-02-24T06:28:30.230Z,20.76
2018-02-24T06:29:01.858Z,20.76
2018-02-24T06:29:33.490Z,20.79
2018-02-24T06:30:05.134Z,20.82
2018-02-24T06:30:36.782Z,20.80
2018-02-24T06:31:08.410Z,20.79
2018-02-24T06:31:40.097Z,20.83
2018-02-24T06:32:11.741Z,20.78
2018-02-24T06:32:43.366Z,20.79
2018-02-24T06:33:15.010Z,20.75
2018-02-24T06:33:46.634Z,20.77
2018-02-24T06:34:18.261Z,20.74
2018-02-24T06:34:49.890Z,20.76
2018-02-24T06:35:21.518Z,20.70
2018-02-24T06:35:53.150Z,20.68
2018-02-24T06:36:24.778Z,20.69
2018-02-24T06:36:56.462Z,20.71
2018-02-24T06:37:28.090Z,20.73
2018-02-24T06:37:59.714Z,20.75
2018-02-24T06:38:31.338Z,20.73
2018-02-24T06:39:02.966Z,20.73
2018-02-24T06:39:34.619Z,20.68
2018-02-24T06:40:06.262Z,20.70
2018-02-24T06:40:37.906Z,20.68
2018-02-24T06:41:09.545Z,20.71
2018-02-24T06:41:41.165Z,20.71
2018-02-24T06:42:12.833Z,20.73
2018-02-24T06:42:44.464Z,20.70
2018-02-24T06:43:16.086Z,20.68
2018-02-24T06:43:47.713Z,20.65
2018-02-24T06:44:19.338Z,20.64
2018-02-24T06:44:50.962Z,20.61
2018-02-24T06:45:22.598Z,20.57
2018-02-24T06:45:54.230Z,20.59
2018-02-24T06:46:25.878Z,20.61
2018-02-24T06:46:57.562Z,20.54
2018-02-24T06:47:29.191Z,20.52